sensor_id;sensor_type;location;lat;lon;timestamp;P1;durP1;ratioP1;P2;durP2;ratioP2
16460;SDS011;8341;42.048;24.650;2023-06-14T00:00:14;7.28;;;5.82;;
16460;SDS011;8341;42.048;24.650;2023-06-14T00:02:42;8.02;;;6.55;;
16460;SDS011;8341;42.048;24.650;2023-06-14T00:05:08;7.45;;;6.40;;
16460;SDS011;8341;42.048;24.650;2023-06-14T00:07:37;7.18;;;5.97;;
16460;SDS011;8341;42.048;24.650;2023-06-14T00:10:07;8.82;;;6.70;;
16460;SDS011;8341;42.048;24.650;2023-06-14T00:12:35;7.00;;;6.25;;
16460;SDS011;8341;42.048;24.650;2023-06-14T00:15:04;7.38;;;6.63;;
16460;SDS011;8341;42.048;24.650;2023-06-14T00:17:32;8.05;;;6.88;;
16460;SDS011;8341;42.048;24.650;2023-06-14T00:19:59;7.18;;;6.47;;
16460;SDS011;8341;42.048;24.650;2023-06-14T00:22:28;7.65;;;5.95;;
16460;SDS011;8341;42.048;24.650;2023-06-14T00:24:56;8.60;;;6.80;;
16460;SDS011;8341;42.048;24.650;2023-06-14T00:27:22;8.68;;;6.78;;
16460;SDS011;8341;42.048;24.650;2023-06-14T00:29:49;7.43;;;6.68;;
16460;SDS011;8341;42.048;24.650;2023-06-14T00:32:18;7.47;;;6.40;;
16460;SDS011;8341;42.048;24.650;2023-06-14T00:34:49;9.68;;;6.72;;
16460;SDS011;8341;42.048;24.650;2023-06-14T00:37:16;7.75;;;6.55;;
16460;SDS011;8341;42.048;24.650;2023-06-14T00:39:43;7.10;;;6.25;;
16460;SDS011;8341;42.048;24.650;2023-06-14T00:42:09;7.47;;;6.72;;
16460;SDS011;8341;42.048;24.650;2023-06-14T00:44:36;9.80;;;6.75;;
16460;SDS011;8341;42.048;24.650;2023-06-14T00:47:03;7.07;;;6.00;;
16460;SDS011;8341;42.048;24.650;2023-06-14T00:49:32;6.32;;;5.57;;
16460;SDS011;8341;42.048;24.650;2023-06-14T00:51:59;6.05;;;5.47;;
16460;SDS011;8341;42.048;24.650;2023-06-14T00:54:27;6.90;;;6.20;;
16460;SDS011;8341;42.048;24.650;2023-06-14T00:56:54;8.95;;;6.32;;
16460;SDS011;8341;42.048;24.650;2023-06-14T00:59:20;9.13;;;5.75;;
16460;SDS011;8341;42.048;24.650;2023-06-14T01:01:47;7.50;;;6.32;;
16460;SDS011;8341;42.048;24.650;2023-06-14T01:04:14;7.30;;;6.50;;
16460;SDS011;8341;42.048;24.650;2023-06-14T01:06:43;7.28;;;6.47;;
16460;SDS011;8341;42.048;24.650;2023-06-14T01:09:18;6.95;;;6.35;;
16460;SDS011;8341;42.048;24.650;2023-06-14T01:11:54;7.10;;;6.50;;
16460;SDS011;8341;42.048;24.650;2023-06-14T01:14:27;7.57;;;5.85;;
16460;SDS011;8341;42.048;24.650;2023-06-14T01:16:55;9.10;;;6.30;;
16460;SDS011;8341;42.048;24.650;2023-06-14T01:19:25;9.25;;;6.53;;
16460;SDS011;8341;42.048;24.650;2023-06-14T01:21:54;7.18;;;6.25;;
16460;SDS011;8341;42.048;24.650;2023-06-14T01:24:23;8.98;;;6.70;;
16460;SDS011;8341;42.048;24.650;2023-06-14T01:26:57;9.75;;;6.70;;
16460;SDS011;8341;42.048;24.650;2023-06-14T01:29:25;8.55;;;7.10;;
16460;SDS011;8341;42.048;24.650;2023-06-14T01:31:57;6.80;;;6.20;;
16460;SDS011;8341;42.048;24.650;2023-06-14T01:34:24;7.65;;;6.22;;
16460;SDS011;8341;42.048;24.650;2023-06-14T01:36:51;12.80;;;6.35;;
16460;SDS011;8341;42.048;24.650;2023-06-14T01:39:20;10.85;;;7.50;;
16460;SDS011;8341;42.048;24.650;2023-06-14T01:41:50;7.70;;;6.60;;
16460;SDS011;8341;42.048;24.650;2023-06-14T01:44:18;8.68;;;7.63;;
16460;SDS011;8341;42.048;24.650;2023-06-14T01:46:46;7.75;;;7.03;;
16460;SDS011;8341;42.048;24.650;2023-06-14T01:49:14;8.88;;;6.40;;
16460;SDS011;8341;42.048;24.650;2023-06-14T01:51:41;7.80;;;6.63;;
16460;SDS011;8341;42.048;24.650;2023-06-14T01:54:07;9.45;;;7.63;;
16460;SDS011;8341;42.048;24.650;2023-06-14T01:56:34;9.75;;;7.25;;
16460;SDS011;8341;42.048;24.650;2023-06-14T01:59:03;9.10;;;8.02;;
16460;SDS011;8341;42.048;24.650;2023-06-14T02:01:30;7.60;;;6.90;;
16460;SDS011;8341;42.048;24.650;2023-06-14T02:03:59;9.82;;;7.72;;
16460;SDS011;8341;42.048;24.650;2023-06-14T02:06:26;9.70;;;7.40;;
16460;SDS011;8341;42.048;24.650;2023-06-14T02:08:53;8.35;;;7.40;;
16460;SDS011;8341;42.048;24.650;2023-06-14T02:11:20;10.52;;;7.75;;
16460;SDS011;8341;42.048;24.650;2023-06-14T02:13:47;8.60;;;7.15;;
16460;SDS011;8341;42.048;24.650;2023-06-14T02:16:15;9.98;;;7.20;;
16460;SDS011;8341;42.048;24.650;2023-06-14T02:18:42;9.00;;;7.85;;
16460;SDS011;8341;42.048;24.650;2023-06-14T02:21:09;11.60;;;7.78;;
16460;SDS011;8341;42.048;24.650;2023-06-14T02:23:36;10.30;;;8.00;;
16460;SDS011;8341;42.048;24.650;2023-06-14T02:26:03;9.07;;;8.18;;
16460;SDS011;8341;42.048;24.650;2023-06-14T02:28:29;9.75;;;7.80;;
16460;SDS011;8341;42.048;24.650;2023-06-14T02:30:56;8.13;;;7.38;;
16460;SDS011;8341;42.048;24.650;2023-06-14T02:33:24;7.68;;;6.97;;
16460;SDS011;8341;42.048;24.650;2023-06-14T02:35:51;10.35;;;7.32;;
16460;SDS011;8341;42.048;24.650;2023-06-14T02:38:18;7.80;;;6.50;;
16460;SDS011;8341;42.048;24.650;2023-06-14T02:40:45;8.23;;;7.10;;
16460;SDS011;8341;42.048;24.650;2023-06-14T02:43:12;14.93;;;9.07;;
16460;SDS011;8341;42.048;24.650;2023-06-14T02:45:40;10.90;;;9.02;;
16460;SDS011;8341;42.048;24.650;2023-06-14T02:48:07;10.40;;;9.25;;
16460;SDS011;8341;42.048;24.650;2023-06-14T02:50:35;14.45;;;10.30;;
16460;SDS011;8341;42.048;24.650;2023-06-14T02:53:02;9.48;;;8.27;;
16460;SDS011;8341;42.048;24.650;2023-06-14T02:55:29;7.68;;;6.88;;
16460;SDS011;8341;42.048;24.650;2023-06-14T02:57:56;8.98;;;8.00;;
16460;SDS011;8341;42.048;24.650;2023-06-14T03:00:22;13.27;;;9.48;;
16460;SDS011;8341;42.048;24.650;2023-06-14T03:02:49;9.73;;;8.38;;
16460;SDS011;8341;42.048;24.650;2023-06-14T03:05:17;15.00;;;12.75;;
16460;SDS011;8341;42.048;24.650;2023-06-14T03:07:47;13.20;;;11.15;;
16460;SDS011;8341;42.048;24.650;2023-06-14T03:10:15;13.68;;;11.02;;
16460;SDS011;8341;42.048;24.650;2023-06-14T03:12:42;11.18;;;8.23;;
16460;SDS011;8341;42.048;24.650;2023-06-14T03:15:09;13.00;;;10.13;;
16460;SDS011;8341;42.048;24.650;2023-06-14T03:17:38;14.00;;;9.27;;
16460;SDS011;8341;42.048;24.650;2023-06-14T03:20:05;13.38;;;9.50;;
16460;SDS011;8341;42.048;24.650;2023-06-14T03:22:33;12.05;;;10.77;;
16460;SDS011;8341;42.048;24.650;2023-06-14T03:25:01;10.75;;;9.02;;
16460;SDS011;8341;42.048;24.650;2023-06-14T03:27:29;11.68;;;9.32;;
16460;SDS011;8341;42.048;24.650;2023-06-14T03:29:56;16.02;;;10.68;;
16460;SDS011;8341;42.048;24.650;2023-06-14T03:32:23;17.48;;;12.43;;
16460;SDS011;8341;42.048;24.650;2023-06-14T03:34:49;14.20;;;12.65;;
16460;SDS011;8341;42.048;24.650;2023-06-14T03:37:17;14.07;;;11.40;;
16460;SDS011;8341;42.048;24.650;2023-06-14T03:39:44;12.93;;;10.73;;
16460;SDS011;8341;42.048;24.650;2023-06-14T03:42:14;12.77;;;9.35;;
16460;SDS011;8341;42.048;24.650;2023-06-14T03:44:41;13.73;;;9.70;;
16460;SDS011;8341;42.048;24.650;2023-06-14T03:47:07;12.88;;;9.32;;
16460;SDS011;8341;42.048;24.650;2023-06-14T03:49:35;10.75;;;9.00;;
16460;SDS011;8341;42.048;24.650;2023-06-14T03:52:02;11.25;;;9.18;;
16460;SDS011;8341;42.048;24.650;2023-06-14T03:54:30;11.80;;;9.20;;
16460;SDS011;8341;42.048;24.650;2023-06-14T03:56:57;11.05;;;9.13;;
16460;SDS011;8341;42.048;24.650;2023-06-14T03:59:26;10.55;;;9.40;;
16460;SDS011;8341;42.048;24.650;2023-06-14T04:01:53;9.15;;;8.25;;
16460;SDS011;8341;42.048;24.650;2023-06-14T04:04:20;10.10;;;8.93;;
16460;SDS011;8341;42.048;24.650;2023-06-14T04:06:54;12.23;;;8.48;;
16460;SDS011;8341;42.048;24.650;2023-06-14T04:09:22;9.88;;;8.82;;
16460;SDS011;8341;42.048;24.650;2023-06-14T04:11:50;10.90;;;9.02;;
16460;SDS011;8341;42.048;24.650;2023-06-14T04:14:17;10.07;;;8.95;;
16460;SDS011;8341;42.048;24.650;2023-06-14T04:16:46;11.10;;;9.18;;
16460;SDS011;8341;42.048;24.650;2023-06-14T04:19:13;11.23;;;8.98;;
16460;SDS011;8341;42.048;24.650;2023-06-14T04:21:40;10.10;;;8.35;;
16460;SDS011;8341;42.048;24.650;2023-06-14T04:24:08;9.73;;;8.10;;
16460;SDS011;8341;42.048;24.650;2023-06-14T04:26:38;9.73;;;8.73;;
16460;SDS011;8341;42.048;24.650;2023-06-14T04:29:05;12.60;;;8.38;;
16460;SDS011;8341;42.048;24.650;2023-06-14T04:31:32;9.18;;;7.88;;
16460;SDS011;8341;42.048;24.650;2023-06-14T04:34:00;8.85;;;7.95;;
16460;SDS011;8341;42.048;24.650;2023-06-14T04:36:30;8.43;;;7.60;;
16460;SDS011;8341;42.048;24.650;2023-06-14T04:38:59;8.38;;;7.55;;
16460;SDS011;8341;42.048;24.650;2023-06-14T04:41:28;8.20;;;7.15;;
16460;SDS011;8341;42.048;24.650;2023-06-14T04:43:56;9.07;;;7.90;;
16460;SDS011;8341;42.048;24.650;2023-06-14T04:46:26;8.63;;;7.70;;
16460;SDS011;8341;42.048;24.650;2023-06-14T04:48:53;9.38;;;7.72;;
16460;SDS011;8341;42.048;24.650;2023-06-14T04:51:23;8.18;;;7.38;;
16460;SDS011;8341;42.048;24.650;2023-06-14T04:53:54;8.07;;;7.28;;
16460;SDS011;8341;42.048;24.650;2023-06-14T04:56:22;7.85;;;7.15;;
16460;SDS011;8341;42.048;24.650;2023-06-14T04:58:50;8.93;;;7.90;;
16460;SDS011;8341;42.048;24.650;2023-06-14T05:01:18;8.57;;;7.78;;
16460;SDS011;8341;42.048;24.650;2023-06-14T05:03:44;8.80;;;7.82;;
16460;SDS011;8341;42.048;24.650;2023-06-14T05:06:14;8.40;;;7.60;;
16460;SDS011;8341;42.048;24.650;2023-06-14T05:08:44;8.57;;;7.72;;
16460;SDS011;8341;42.048;24.650;2023-06-14T05:11:10;9.88;;;7.97;;
16460;SDS011;8341;42.048;24.650;2023-06-14T05:13:37;8.10;;;7.30;;
16460;SDS011;8341;42.048;24.650;2023-06-14T05:16:05;10.15;;;7.47;;
16460;SDS011;8341;42.048;24.650;2023-06-14T05:18:32;9.05;;;8.10;;
16460;SDS011;8341;42.048;24.650;2023-06-14T05:21:00;8.82;;;8.00;;
16460;SDS011;8341;42.048;24.650;2023-06-14T05:23:27;8.18;;;7.25;;
16460;SDS011;8341;42.048;24.650;2023-06-14T05:25:55;8.07;;;7.28;;
16460;SDS011;8341;42.048;24.650;2023-06-14T05:28:23;7.82;;;7.13;;
16460;SDS011;8341;42.048;24.650;2023-06-14T05:30:50;7.50;;;6.78;;
16460;SDS011;8341;42.048;24.650;2023-06-14T05:33:17;8.18;;;7.10;;
16460;SDS011;8341;42.048;24.650;2023-06-14T05:35:44;7.25;;;6.65;;
16460;SDS011;8341;42.048;24.650;2023-06-14T05:38:12;7.88;;;7.07;;
16460;SDS011;8341;42.048;24.650;2023-06-14T05:40:38;7.97;;;6.78;;
16460;SDS011;8341;42.048;24.650;2023-06-14T05:43:07;7.15;;;6.45;;
16460;SDS011;8341;42.048;24.650;2023-06-14T05:45:33;7.68;;;7.03;;
16460;SDS011;8341;42.048;24.650;2023-06-14T05:48:00;7.38;;;6.68;;
16460;SDS011;8341;42.048;24.650;2023-06-14T05:50:27;7.60;;;6.80;;
16460;SDS011;8341;42.048;24.650;2023-06-14T05:52:54;7.97;;;7.18;;
16460;SDS011;8341;42.048;24.650;2023-06-14T05:55:21;8.20;;;7.47;;
16460;SDS011;8341;42.048;24.650;2023-06-14T05:57:48;9.25;;;8.27;;
16460;SDS011;8341;42.048;24.650;2023-06-14T06:00:17;9.50;;;7.80;;
16460;SDS011;8341;42.048;24.650;2023-06-14T06:02:45;8.63;;;7.82;;
16460;SDS011;8341;42.048;24.650;2023-06-14T06:05:12;8.15;;;7.35;;
16460;SDS011;8341;42.048;24.650;2023-06-14T06:07:41;8.77;;;7.97;;
16460;SDS011;8341;42.048;24.650;2023-06-14T06:10:09;8.52;;;7.63;;
16460;SDS011;8341;42.048;24.650;2023-06-14T06:12:36;8.65;;;7.85;;
16460;SDS011;8341;42.048;24.650;2023-06-14T06:15:03;10.63;;;7.38;;
16460;SDS011;8341;42.048;24.650;2023-06-14T06:17:32;11.50;;;7.60;;
16460;SDS011;8341;42.048;24.650;2023-06-14T06:20:00;10.50;;;8.40;;
16460;SDS011;8341;42.048;24.650;2023-06-14T06:22:27;7.68;;;7.05;;
16460;SDS011;8341;42.048;24.650;2023-06-14T06:24:54;9.27;;;8.38;;
16460;SDS011;8341;42.048;24.650;2023-06-14T06:27:21;9.25;;;7.55;;
16460;SDS011;8341;42.048;24.650;2023-06-14T06:29:47;8.77;;;7.97;;
16460;SDS011;8341;42.048;24.650;2023-06-14T06:32:15;10.30;;;7.55;;
16460;SDS011;8341;42.048;24.650;2023-06-14T06:34:43;8.50;;;7.70;;
16460;SDS011;8341;42.048;24.650;2023-06-14T06:37:10;10.88;;;9.00;;
16460;SDS011;8341;42.048;24.650;2023-06-14T06:39:37;9.63;;;8.45;;
16460;SDS011;8341;42.048;24.650;2023-06-14T06:42:04;9.05;;;8.18;;
16460;SDS011;8341;42.048;24.650;2023-06-14T06:44:31;11.23;;;8.90;;
16460;SDS011;8341;42.048;24.650;2023-06-14T06:46:58;10.57;;;9.55;;
16460;SDS011;8341;42.048;24.650;2023-06-14T06:49:25;11.55;;;9.20;;
16460;SDS011;8341;42.048;24.650;2023-06-14T06:52:03;10.38;;;9.40;;
16460;SDS011;8341;42.048;24.650;2023-06-14T06:54:31;10.20;;;9.15;;
16460;SDS011;8341;42.048;24.650;2023-06-14T06:56:59;10.70;;;9.60;;
16460;SDS011;8341;42.048;24.650;2023-06-14T06:59:26;10.85;;;9.85;;
16460;SDS011;8341;42.048;24.650;2023-06-14T07:01:53;10.57;;;9.55;;
16460;SDS011;8341;42.048;24.650;2023-06-14T07:04:20;9.02;;;7.82;;
16460;SDS011;8341;42.048;24.650;2023-06-14T07:06:47;9.45;;;8.55;;
16460;SDS011;8341;42.048;24.650;2023-06-14T07:09:16;9.02;;;8.10;;
16460;SDS011;8341;42.048;24.650;2023-06-14T07:11:45;12.25;;;9.43;;
16460;SDS011;8341;42.048;24.650;2023-06-14T07:14:13;11.00;;;9.73;;
16460;SDS011;8341;42.048;24.650;2023-06-14T07:16:40;10.93;;;9.93;;
16460;SDS011;8341;42.048;24.650;2023-06-14T07:19:08;10.38;;;9.35;;
16460;SDS011;8341;42.048;24.650;2023-06-14T07:21:35;10.52;;;9.45;;
16460;SDS011;8341;42.048;24.650;2023-06-14T07:24:03;10.77;;;9.68;;
16460;SDS011;8341;42.048;24.650;2023-06-14T07:26:33;12.82;;;11.18;;
16460;SDS011;8341;42.048;24.650;2023-06-14T07:29:00;11.48;;;10.32;;
16460;SDS011;8341;42.048;24.650;2023-06-14T07:31:27;14.95;;;10.43;;
16460;SDS011;8341;42.048;24.650;2023-06-14T07:33:54;12.73;;;9.70;;
16460;SDS011;8341;42.048;24.650;2023-06-14T07:36:21;12.13;;;9.82;;
16460;SDS011;8341;42.048;24.650;2023-06-14T07:38:48;10.90;;;9.88;;
16460;SDS011;8341;42.048;24.650;2023-06-14T07:41:15;11.30;;;9.95;;
16460;SDS011;8341;42.048;24.650;2023-06-14T07:43:43;12.73;;;10.07;;
16460;SDS011;8341;42.048;24.650;2023-06-14T07:46:10;10.27;;;9.27;;
16460;SDS011;8341;42.048;24.650;2023-06-14T07:48:37;11.75;;;9.40;;
16460;SDS011;8341;42.048;24.650;2023-06-14T07:51:04;16.75;;;10.98;;
16460;SDS011;8341;42.048;24.650;2023-06-14T07:53:31;11.73;;;10.30;;
16460;SDS011;8341;42.048;24.650;2023-06-14T07:55:58;10.25;;;9.25;;
16460;SDS011;8341;42.048;24.650;2023-06-14T07:58:25;11.52;;;9.23;;
16460;SDS011;8341;42.048;24.650;2023-06-14T08:00:53;10.27;;;9.27;;
16460;SDS011;8341;42.048;24.650;2023-06-14T08:03:20;11.10;;;9.32;;
16460;SDS011;8341;42.048;24.650;2023-06-14T08:05:47;9.88;;;8.88;;
16460;SDS011;8341;42.048;24.650;2023-06-14T08:08:14;10.65;;;9.55;;
16460;SDS011;8341;42.048;24.650;2023-06-14T08:10:41;10.38;;;9.27;;
16460;SDS011;8341;42.048;24.650;2023-06-14T08:13:08;10.25;;;9.25;;
16460;SDS011;8341;42.048;24.650;2023-06-14T08:15:35;10.48;;;9.48;;
16460;SDS011;8341;42.048;24.650;2023-06-14T08:18:03;9.52;;;8.57;;
16460;SDS011;8341;42.048;24.650;2023-06-14T08:20:32;9.45;;;8.45;;
16460;SDS011;8341;42.048;24.650;2023-06-14T08:23:00;11.20;;;9.10;;
16460;SDS011;8341;42.048;24.650;2023-06-14T08:25:29;8.80;;;8.00;;
16460;SDS011;8341;42.048;24.650;2023-06-14T08:27:55;10.32;;;8.70;;
16460;SDS011;8341;42.048;24.650;2023-06-14T08:30:22;10.45;;;9.48;;
16460;SDS011;8341;42.048;24.650;2023-06-14T08:32:49;11.38;;;10.18;;
16460;SDS011;8341;42.048;24.650;2023-06-14T08:35:18;12.07;;;10.43;;
16460;SDS011;8341;42.048;24.650;2023-06-14T08:37:45;13.13;;;11.27;;
16460;SDS011;8341;42.048;24.650;2023-06-14T08:40:16;11.77;;;10.65;;
16460;SDS011;8341;42.048;24.650;2023-06-14T08:42:47;14.50;;;11.50;;
16460;SDS011;8341;42.048;24.650;2023-06-14T08:45:17;11.52;;;10.43;;
16460;SDS011;8341;42.048;24.650;2023-06-14T08:47:44;11.52;;;10.50;;
16460;SDS011;8341;42.048;24.650;2023-06-14T08:50:11;11.82;;;10.60;;
16460;SDS011;8341;42.048;24.650;2023-06-14T08:52:42;11.88;;;10.68;;
16460;SDS011;8341;42.048;24.650;2023-06-14T08:55:16;12.45;;;10.90;;
16460;SDS011;8341;42.048;24.650;2023-06-14T08:57:45;14.63;;;11.13;;
16460;SDS011;8341;42.048;24.650;2023-06-14T09:00:14;14.00;;;11.48;;
16460;SDS011;8341;42.048;24.650;2023-06-14T09:02:42;12.90;;;11.57;;
16460;SDS011;8341;42.048;24.650;2023-06-14T09:05:10;11.95;;;10.75;;
16460;SDS011;8341;42.048;24.650;2023-06-14T09:07:38;13.30;;;11.90;;
16460;SDS011;8341;42.048;24.650;2023-06-14T09:10:09;11.20;;;10.10;;
16460;SDS011;8341;42.048;24.650;2023-06-14T09:12:37;12.52;;;11.02;;
16460;SDS011;8341;42.048;24.650;2023-06-14T09:15:05;12.45;;;11.15;;
16460;SDS011;8341;42.048;24.650;2023-06-14T09:17:34;12.73;;;10.82;;
16460;SDS011;8341;42.048;24.650;2023-06-14T09:20:01;13.63;;;12.25;;
16460;SDS011;8341;42.048;24.650;2023-06-14T09:22:34;14.30;;;12.05;;
16460;SDS011;8341;42.048;24.650;2023-06-14T09:25:01;14.02;;;11.80;;
16460;SDS011;8341;42.048;24.650;2023-06-14T09:27:30;14.13;;;12.25;;
16460;SDS011;8341;42.048;24.650;2023-06-14T09:29:57;15.35;;;12.10;;
16460;SDS011;8341;42.048;24.650;2023-06-14T09:32:24;15.05;;;13.43;;
16460;SDS011;8341;42.048;24.650;2023-06-14T09:34:51;16.80;;;13.38;;
16460;SDS011;8341;42.048;24.650;2023-06-14T09:37:28;14.52;;;13.13;;
16460;SDS011;8341;42.048;24.650;2023-06-14T09:39:55;14.15;;;12.75;;
16460;SDS011;8341;42.048;24.650;2023-06-14T09:42:22;14.43;;;12.90;;
16460;SDS011;8341;42.048;24.650;2023-06-14T09:44:52;17.83;;;14.25;;
16460;SDS011;8341;42.048;24.650;2023-06-14T09:47:20;16.48;;;14.27;;
16460;SDS011;8341;42.048;24.650;2023-06-14T09:49:47;19.63;;;15.52;;
16460;SDS011;8341;42.048;24.650;2023-06-14T09:52:17;15.55;;;13.27;;
16460;SDS011;8341;42.048;24.650;2023-06-14T09:54:45;16.38;;;14.25;;
16460;SDS011;8341;42.048;24.650;2023-06-14T09:57:13;16.17;;;13.40;;
16460;SDS011;8341;42.048;24.650;2023-06-14T09:59:42;14.05;;;12.60;;
16460;SDS011;8341;42.048;24.650;2023-06-14T10:02:14;14.80;;;13.30;;
16460;SDS011;8341;42.048;24.650;2023-06-14T10:04:50;14.15;;;12.75;;
16460;SDS011;8341;42.048;24.650;2023-06-14T10:07:20;13.13;;;11.77;;
16460;SDS011;8341;42.048;24.650;2023-06-14T10:09:48;14.15;;;12.75;;
16460;SDS011;8341;42.048;24.650;2023-06-14T10:12:16;17.98;;;15.10;;
16460;SDS011;8341;42.048;24.650;2023-06-14T10:14:47;15.82;;;14.30;;
16460;SDS011;8341;42.048;24.650;2023-06-14T10:17:20;15.32;;;13.80;;
16460;SDS011;8341;42.048;24.650;2023-06-14T10:19:54;15.45;;;13.63;;
16460;SDS011;8341;42.048;24.650;2023-06-14T10:22:26;14.48;;;12.82;;
16460;SDS011;8341;42.048;24.650;2023-06-14T10:24:58;16.15;;;12.82;;
16460;SDS011;8341;42.048;24.650;2023-06-14T10:27:26;15.00;;;12.75;;
16460;SDS011;8341;42.048;24.650;2023-06-14T10:30:03;14.85;;;13.30;;
16460;SDS011;8341;42.048;24.650;2023-06-14T10:32:33;14.00;;;12.68;;
16460;SDS011;8341;42.048;24.650;2023-06-14T10:35:00;13.65;;;12.27;;
16460;SDS011;8341;42.048;24.650;2023-06-14T10:37:30;12.75;;;11.55;;
16460;SDS011;8341;42.048;24.650;2023-06-14T10:39:57;12.55;;;11.20;;
16460;SDS011;8341;42.048;24.650;2023-06-14T10:42:27;12.40;;;11.02;;
16460;SDS011;8341;42.048;24.650;2023-06-14T10:44:57;12.32;;;11.07;;
16460;SDS011;8341;42.048;24.650;2023-06-14T10:47:28;11.30;;;10.25;;
16460;SDS011;8341;42.048;24.650;2023-06-14T10:50:03;10.57;;;9.55;;
16460;SDS011;8341;42.048;24.650;2023-06-14T10:52:33;9.88;;;8.98;;
16460;SDS011;8341;42.048;24.650;2023-06-14T10:55:05;9.15;;;8.25;;
16460;SDS011;8341;42.048;24.650;2023-06-14T10:57:35;9.70;;;8.80;;
16460;SDS011;8341;42.048;24.650;2023-06-14T11:00:02;9.27;;;8.18;;
16460;SDS011;8341;42.048;24.650;2023-06-14T11:05:47;8.80;;;8.10;;
16460;SDS011;8341;42.048;24.650;2023-06-14T11:11:23;10.02;;;9.05;;
16460;SDS011;8341;42.048;24.650;2023-06-14T11:13:56;9.70;;;8.80;;
16460;SDS011;8341;42.048;24.650;2023-06-14T11:16:22;10.25;;;9.35;;
16460;SDS011;8341;42.048;24.650;2023-06-14T11:18:53;9.15;;;8.35;;
16460;SDS011;8341;42.048;24.650;2023-06-14T11:21:23;9.70;;;8.80;;
16460;SDS011;8341;42.048;24.650;2023-06-14T11:23:56;9.57;;;8.70;;
16460;SDS011;8341;42.048;24.650;2023-06-14T11:26:26;9.63;;;8.77;;
16460;SDS011;8341;42.048;24.650;2023-06-14T11:28:57;9.52;;;8.70;;
16460;SDS011;8341;42.048;24.650;2023-06-14T11:31:25;8.52;;;7.82;;
16460;SDS011;8341;42.048;24.650;2023-06-14T11:33:53;8.60;;;7.78;;
16460;SDS011;8341;42.048;24.650;2023-06-14T11:36:20;8.52;;;7.63;;
16460;SDS011;8341;42.048;24.650;2023-06-14T11:38:48;8.93;;;8.23;;
16460;SDS011;8341;42.048;24.650;2023-06-14T11:41:15;8.70;;;8.00;;
16460;SDS011;8341;42.048;24.650;2023-06-14T11:43:42;8.38;;;7.38;;
16460;SDS011;8341;42.048;24.650;2023-06-14T11:46:12;9.07;;;8.18;;
16460;SDS011;8341;42.048;24.650;2023-06-14T11:48:41;8.40;;;7.57;;
16460;SDS011;8341;42.048;24.650;2023-06-14T11:51:08;9.02;;;8.13;;
16460;SDS011;8341;42.048;24.650;2023-06-14T11:53:36;8.75;;;8.05;;
16460;SDS011;8341;42.048;24.650;2023-06-14T11:56:05;7.95;;;7.15;;
16460;SDS011;8341;42.048;24.650;2023-06-14T11:58:32;8.55;;;7.38;;
16460;SDS011;8341;42.048;24.650;2023-06-14T12:00:59;8.27;;;7.53;;
16460;SDS011;8341;42.048;24.650;2023-06-14T12:03:27;7.88;;;7.28;;
16460;SDS011;8341;42.048;24.650;2023-06-14T12:06:06;6.78;;;6.28;;
16460;SDS011;8341;42.048;24.650;2023-06-14T12:08:34;7.20;;;6.60;;
16460;SDS011;8341;42.048;24.650;2023-06-14T12:11:05;6.95;;;6.35;;
16460;SDS011;8341;42.048;24.650;2023-06-14T12:13:33;6.80;;;6.20;;
16460;SDS011;8341;42.048;24.650;2023-06-14T12:16:01;7.40;;;6.72;;
16460;SDS011;8341;42.048;24.650;2023-06-14T12:18:32;9.90;;;8.98;;
16460;SDS011;8341;42.048;24.650;2023-06-14T12:21:00;9.70;;;8.70;;
16460;SDS011;8341;42.048;24.650;2023-06-14T12:23:39;13.02;;;11.82;;
16460;SDS011;8341;42.048;24.650;2023-06-14T12:26:11;13.32;;;11.95;;
16460;SDS011;8341;42.048;24.650;2023-06-14T12:28:39;15.02;;;13.65;;
16460;SDS011;8341;42.048;24.650;2023-06-14T12:31:06;15.18;;;13.73;;
16460;SDS011;8341;42.048;24.650;2023-06-14T12:33:33;14.93;;;13.55;;
16460;SDS011;8341;42.048;24.650;2023-06-14T12:36:02;14.55;;;13.15;;
16460;SDS011;8341;42.048;24.650;2023-06-14T12:38:30;15.35;;;13.75;;
16460;SDS011;8341;42.048;24.650;2023-06-14T12:40:57;15.40;;;14.00;;
16460;SDS011;8341;42.048;24.650;2023-06-14T12:43:25;14.32;;;12.95;;
16460;SDS011;8341;42.048;24.650;2023-06-14T12:45:52;15.55;;;14.05;;
16460;SDS011;8341;42.048;24.650;2023-06-14T12:48:19;16.27;;;14.63;;
16460;SDS011;8341;42.048;24.650;2023-06-14T12:50:47;14.85;;;13.20;;
16460;SDS011;8341;42.048;24.650;2023-06-14T12:53:14;15.55;;;13.93;;
16460;SDS011;8341;42.048;24.650;2023-06-14T12:55:40;15.98;;;14.32;;
16460;SDS011;8341;42.048;24.650;2023-06-14T12:58:07;15.98;;;14.48;;
16460;SDS011;8341;42.048;24.650;2023-06-14T13:00:36;15.98;;;14.57;;
16460;SDS011;8341;42.048;24.650;2023-06-14T13:03:02;16.02;;;14.57;;
16460;SDS011;8341;42.048;24.650;2023-06-14T13:05:30;16.65;;;15.10;;
16460;SDS011;8341;42.048;24.650;2023-06-14T13:07:58;16.38;;;14.88;;
16460;SDS011;8341;42.048;24.650;2023-06-14T13:10:25;15.80;;;14.30;;
16460;SDS011;8341;42.048;24.650;2023-06-14T13:12:52;16.23;;;14.63;;
16460;SDS011;8341;42.048;24.650;2023-06-14T13:15:19;14.85;;;13.45;;
16460;SDS011;8341;42.048;24.650;2023-06-14T13:17:47;16.65;;;13.00;;
16460;SDS011;8341;42.048;24.650;2023-06-14T13:20:14;15.02;;;13.57;;
16460;SDS011;8341;42.048;24.650;2023-06-14T13:22:41;14.63;;;13.27;;
16460;SDS011;8341;42.048;24.650;2023-06-14T13:25:08;16.60;;;14.55;;
16460;SDS011;8341;42.048;24.650;2023-06-14T13:27:35;15.77;;;14.27;;
16460;SDS011;8341;42.048;24.650;2023-06-14T13:30:02;16.00;;;14.50;;
16460;SDS011;8341;42.048;24.650;2023-06-14T13:32:31;15.25;;;13.85;;
16460;SDS011;8341;42.048;24.650;2023-06-14T13:34:59;14.88;;;13.48;;
16460;SDS011;8341;42.048;24.650;2023-06-14T13:37:26;15.60;;;14.23;;
16460;SDS011;8341;42.048;24.650;2023-06-14T13:39:54;15.15;;;13.68;;
16460;SDS011;8341;42.048;24.650;2023-06-14T13:42:21;14.80;;;13.30;;
16460;SDS011;8341;42.048;24.650;2023-06-14T13:44:48;15.00;;;13.70;;
16460;SDS011;8341;42.048;24.650;2023-06-14T13:47:16;15.15;;;13.60;;
16460;SDS011;8341;42.048;24.650;2023-06-14T13:49:43;14.50;;;13.10;;
16460;SDS011;8341;42.048;24.650;2023-06-14T13:52:11;14.45;;;13.13;;
16460;SDS011;8341;42.048;24.650;2023-06-14T13:54:38;14.20;;;13.00;;
16460;SDS011;8341;42.048;24.650;2023-06-14T13:57:05;14.65;;;13.20;;
16460;SDS011;8341;42.048;24.650;2023-06-14T13:59:32;14.23;;;12.75;;
16460;SDS011;8341;42.048;24.650;2023-06-14T14:01:59;14.68;;;13.27;;
16460;SDS011;8341;42.048;24.650;2023-06-14T14:04:27;14.30;;;12.88;;
16460;SDS011;8341;42.048;24.650;2023-06-14T14:06:54;13.48;;;12.07;;
16460;SDS011;8341;42.048;24.650;2023-06-14T14:09:22;13.93;;;12.52;;
16460;SDS011;8341;42.048;24.650;2023-06-14T14:11:49;13.40;;;12.00;;
16460;SDS011;8341;42.048;24.650;2023-06-14T14:14:15;13.55;;;12.30;;
16460;SDS011;8341;42.048;24.650;2023-06-14T14:16:42;13.30;;;11.95;;
16460;SDS011;8341;42.048;24.650;2023-06-14T14:19:09;12.32;;;11.23;;
16460;SDS011;8341;42.048;24.650;2023-06-14T14:21:36;12.75;;;11.65;;
16460;SDS011;8341;42.048;24.650;2023-06-14T14:24:03;13.02;;;11.70;;
16460;SDS011;8341;42.048;24.650;2023-06-14T14:26:32;11.52;;;10.45;;
16460;SDS011;8341;42.048;24.650;2023-06-14T14:28:58;11.77;;;10.65;;
16460;SDS011;8341;42.048;24.650;2023-06-14T14:31:25;12.20;;;9.93;;
16460;SDS011;8341;42.048;24.650;2023-06-14T14:33:52;10.18;;;9.23;;
16460;SDS011;8341;42.048;24.650;2023-06-14T14:36:19;18.35;;;10.50;;
16460;SDS011;8341;42.048;24.650;2023-06-14T14:38:46;13.80;;;9.85;;
16460;SDS011;8341;42.048;24.650;2023-06-14T14:41:13;9.85;;;8.57;;
16460;SDS011;8341;42.048;24.650;2023-06-14T14:43:41;11.13;;;10.07;;
16460;SDS011;8341;42.048;24.650;2023-06-14T14:46:08;10.48;;;9.32;;